Time;durP1;ratioP1;P1;durP2;ratioP2;P2;SDS_P1;SDS_P2;PMS_P1;PMS_P2;Temp;Humidity;BMP_temperature;BMP_pressure;BME280_temperature;BME280_humidity;BME280_pressure;Samples;Min_cycle;Max_cycle;Signal;HPM_P1;HPM_P2
2020/12/18 00:01:23;;;;;;;32.00;19.90;;;6.20;6.40;;;;;;5054671;28;20564;-55
2020/12/18 00:03:50;;;;;;;32.90;20.33;;;6.10;8.20;;;;;;5055555;28;20444;-56
2020/12/18 00:06:16;;;;;;;37.90;19.63;;;6.00;10.70;;;;;;5050499;28;20434;-63
2020/12/18 00:08:42;;;;;;;40.40;21.23;;;6.00;17.50;;;;;;5055686;28;20430;-55
2020/12/18 00:11:08;;;;;;;35.97;21.13;;;6.00;24.70;;;;;;5051349;28;20180;-54
2020/12/18 00:13:34;;;;;;;31.07;19.13;;;6.10;22.30;;;;;;5051929;28;20451;-61
2020/12/18 00:15:59;;;;;;;40.87;21.03;;;6.00;26.50;;;;;;5043312;28;20204;-62
2020/12/18 00:18:25;;;;;;;36.47;20.90;;;5.90;28.50;;;;;;5055554;28;20191;-55
2020/12/18 00:20:51;;;;;;;33.90;20.37;;;5.90;50.70;;;;;;5053871;28;20631;-61
2020/12/18 00:23:17;;;;;;;36.20;18.80;;;5.80;97.20;;;;;;5052949;28;20176;-55
2020/12/18 00:25:49;;;;;;;35.80;19.30;;;5.80;99.90;;;;;;5055471;28;20441;-54
2020/12/18 00:28:15;;;;;;;35.97;19.70;;;5.80;99.90;;;;;;5040871;28;20169;-55
2020/12/18 00:30:41;;;;;;;33.63;19.20;;;5.80;99.90;;;;;;5036335;28;20948;-62
2020/12/18 00:33:07;;;;;;;36.47;18.33;;;5.80;99.90;;;;;;5044428;28;20434;-55
2020/12/18 00:35:33;;;;;;;36.00;20.03;;;5.90;99.90;;;;;;5037682;28;20682;-62
2020/12/18 00:37:59;;;;;;;38.33;20.47;;;5.90;99.90;;;;;;5046173;28;20191;-63
2020/12/18 00:40:24;;;;;;;37.13;19.50;;;5.90;99.90;;;;;;5049587;28;20666;-62
2020/12/18 00:42:50;;;;;;;33.23;20.03;;;6.00;99.90;;;;;;5049045;28;20971;-62
2020/12/18 00:45:15;;;;;;;29.60;18.00;;;6.10;99.90;;;;;;5043708;28;20203;-62
2020/12/18 00:47:42;;;;;;;33.67;18.70;;;6.10;99.90;;;;;;5048500;28;20208;-55
2020/12/18 00:50:07;;;;;;;32.17;18.17;;;6.10;99.90;;;;;;5046916;28;20184;-63
2020/12/18 00:52:33;;;;;;;34.27;19.23;;;6.20;99.90;;;;;;5051207;28;20446;-56
2020/12/18 00:54:58;;;;;;;38.23;20.33;;;6.10;99.90;;;;;;5043430;28;20186;-56
2020/12/18 00:57:25;;;;;;;36.77;20.23;;;6.10;99.90;;;;;;5042389;28;20180;-55
2020/12/18 00:59:51;;;;;;;38.80;19.53;;;5.90;99.90;;;;;;5045757;28;20200;-56
2020/12/18 01:02:17;;;;;;;37.53;19.60;;;5.90;99.90;;;;;;5067639;28;20450;-54
2020/12/18 01:04:42;;;;;;;34.47;21.20;;;5.90;99.90;;;;;;5036106;28;20238;-55
2020/12/18 01:07:08;;;;;;;38.77;20.13;;;5.80;99.90;;;;;;5051276;28;20184;-63
2020/12/18 01:09:34;;;;;;;33.50;19.03;;;5.70;99.90;;;;;;5055378;28;20183;-62
2020/12/18 01:11:59;;;;;;;39.30;19.83;;;5.70;99.90;;;;;;5045020;28;20185;-63
2020/12/18 01:14:25;;;;;;;35.00;19.77;;;5.70;99.90;;;;;;5040290;28;20184;-62
2020/12/18 01:16:52;;;;;;;36.67;19.30;;;5.70;99.90;;;;;;5048159;28;20629;-62
2020/12/18 01:19:18;;;;;;;33.03;18.93;;;5.70;99.90;;;;;;5035350;28;20418;-62
2020/12/18 01:21:44;;;;;;;36.57;18.90;;;5.70;99.90;;;;;;5040349;28;20497;-62
2020/12/18 01:24:10;;;;;;;37.13;19.40;;;5.70;99.90;;;;;;5054129;28;20919;-62
2020/12/18 01:26:35;;;;;;;31.93;19.50;;;5.70;99.90;;;;;;5054615;28;20410;-56
2020/12/18 01:29:01;;;;;;;38.87;21.43;;;5.70;99.90;;;;;;5053981;28;20187;-63
2020/12/18 01:31:27;;;;;;;34.77;18.47;;;5.70;99.90;;;;;;5054851;28;20634;-62
2020/12/18 01:33:52;;;;;;;40.60;19.80;;;5.70;99.90;;;;;;5053503;28;20180;-62
2020/12/18 01:36:19;;;;;;;39.93;20.57;;;5.70;99.90;;;;;;5054004;28;20644;-62
2020/12/18 01:38:45;;;;;;;38.43;20.20;;;5.70;99.90;;;;;;5053307;28;20195;-55
2020/12/18 01:41:11;;;;;;;39.37;20.43;;;5.70;99.90;;;;;;5054665;28;20462;-55
2020/12/18 01:43:37;;;;;;;40.53;18.80;;;5.70;99.90;;;;;;5054900;28;20480;-62
2020/12/18 01:46:09;;;;;;;37.53;20.17;;;5.60;99.90;;;;;;5054696;28;20254;-55
2020/12/18 01:48:35;;;;;;;36.53;19.73;;;5.60;99.90;;;;;;5054159;28;20179;-61
2020/12/18 01:51:01;;;;;;;39.00;20.37;;;5.60;99.90;;;;;;5046500;28;20431;-64
2020/12/18 01:53:29;;;;;;;33.90;19.00;;;5.60;99.90;;;;;;5048679;28;20452;-63
2020/12/18 01:55:55;;;;;;;30.33;20.03;;;5.50;99.90;;;;;;5070340;28;20513;-62
2020/12/18 01:58:22;;;;;;;33.30;20.00;;;5.50;99.90;;;;;;5054346;28;20434;-62
2020/12/18 02:00:48;;;;;;;35.07;20.70;;;5.50;99.90;;;;;;5053897;28;21030;-62
2020/12/18 02:03:15;;;;;;;32.53;18.40;;;5.50;99.90;;;;;;5054205;28;20445;-61
2020/12/18 02:05:40;;;;;;;37.03;18.90;;;5.50;99.90;;;;;;5053887;28;20437;-61
2020/12/18 02:08:07;;;;;;;33.47;18.40;;;5.40;99.90;;;;;;5053416;28;20427;-62
2020/12/18 02:10:33;;;;;;;42.00;20.50;;;5.30;99.90;;;;;;5053690;28;20568;-61
2020/12/18 02:12:59;;;;;;;36.87;18.97;;;5.30;99.90;;;;;;5052596;28;20445;-61
2020/12/18 02:15:26;;;;;;;34.60;19.07;;;5.20;99.90;;;;;;5054144;28;20430;-62
2020/12/18 02:17:52;;;;;;;32.80;19.87;;;5.40;99.90;;;;;;5052586;28;20438;-55
2020/12/18 02:20:19;;;;;;;35.73;19.97;;;5.30;99.90;;;;;;5053968;28;20548;-61
2020/12/18 02:22:47;;;;;;;34.97;18.53;;;5.30;99.90;;;;;;5054003;28;20434;-62
2020/12/18 02:25:13;;;;;;;40.30;19.83;;;5.30;99.90;;;;;;5045665;28;20510;-62
2020/12/18 02:27:40;;;;;;;37.07;18.77;;;5.10;99.90;;;;;;5053887;28;20927;-62
2020/12/18 02:30:08;;;;;;;35.50;17.30;;;5.00;99.90;;;;;;5054291;28;20418;-62
2020/12/18 02:32:35;;;;;;;41.53;21.70;;;5.10;99.90;;;;;;5054208;28;20498;-62
2020/12/18 02:35:01;;;;;;;40.73;20.07;;;5.20;99.90;;;;;;5054173;28;20752;-62
2020/12/18 02:37:27;;;;;;;37.50;18.30;;;5.20;99.90;;;;;;5054063;28;20509;-62
2020/12/18 02:39:58;;;;;;;37.07;20.23;;;5.30;99.90;;;;;;5053698;28;20582;-55
2020/12/18 02:42:25;;;;;;;41.30;20.77;;;5.30;99.90;;;;;;5041867;28;20513;-54
2020/12/18 02:44:51;;;;;;;34.60;20.13;;;5.20;99.90;;;;;;5042188;28;20439;-54
2020/12/18 02:47:17;;;;;;;38.50;20.70;;;5.20;99.90;;;;;;5053200;28;21162;-54
2020/12/18 02:49:43;;;;;;;35.97;19.60;;;5.10;99.90;;;;;;5052593;28;20504;-54
2020/12/18 02:52:09;;;;;;;29.60;18.47;;;5.10;99.90;;;;;;5054008;28;20179;-60
2020/12/18 02:54:35;;;;;;;38.40;18.97;;;5.10;99.90;;;;;;5049786;28;20441;-61
2020/12/18 02:57:01;;;;;;;32.20;19.40;;;5.10;99.90;;;;;;5051879;28;20430;-54
2020/12/18 02:59:27;;;;;;;30.90;17.40;;;5.10;99.90;;;;;;5044590;28;20925;-55
2020/12/18 03:01:53;;;;;;;37.90;19.70;;;5.20;99.90;;;;;;5051780;28;20701;-54
2020/12/18 03:04:19;;;;;;;36.30;19.97;;;5.10;99.90;;;;;;5054033;28;20453;-54
2020/12/18 03:06:44;;;;;;;38.00;18.83;;;5.10;99.90;;;;;;5053755;28;20219;-54
2020/12/18 03:09:11;;;;;;;40.10;20.13;;;5.00;99.90;;;;;;5053794;28;20442;-54
2020/12/18 03:11:37;;;;;;;31.00;18.13;;;5.00;99.90;;;;;;5052445;28;20662;-62
2020/12/18 03:14:03;;;;;;;38.00;19.37;;;5.00;99.90;;;;;;5053915;28;20553;-62
2020/12/18 03:16:29;;;;;;;37.30;19.67;;;4.90;99.90;;;;;;5046207;28;20276;-62
2020/12/18 03:18:56;;;;;;;33.20;19.63;;;5.00;99.90;;;;;;5053615;28;20450;-62
2020/12/18 03:21:22;;;;;;;37.80;20.10;;;5.00;99.90;;;;;;5053887;28;20454;-62
2020/12/18 03:23:48;;;;;;;35.10;17.87;;;4.90;99.90;;;;;;5052301;28;20769;-55
2020/12/18 03:26:14;;;;;;;37.10;19.03;;;5.00;99.90;;;;;;5052963;28;20177;-61
2020/12/18 03:28:40;;;;;;;35.00;19.07;;;5.00;99.90;;;;;;5053298;28;20904;-61
2020/12/18 03:31:06;;;;;;;35.60;20.50;;;5.00;99.90;;;;;;5043945;28;20180;-62
2020/12/18 03:33:32;;;;;;;36.37;18.23;;;5.00;99.90;;;;;;5056702;28;21205;-61
2020/12/18 03:35:58;;;;;;;37.07;20.93;;;5.00;99.90;;;;;;5034541;28;20430;-54
2020/12/18 03:38:25;;;;;;;37.37;18.27;;;5.00;99.90;;;;;;5068604;28;20442;-54
2020/12/18 03:40:51;;;;;;;35.17;17.77;;;5.00;99.90;;;;;;5051623;28;20473;-54
2020/12/18 03:43:17;;;;;;;36.90;19.77;;;5.00;99.90;;;;;;5053174;28;20429;-55
2020/12/18 03:45:43;;;;;;;39.63;19.40;;;4.90;99.90;;;;;;5052690;28;20430;-61
2020/12/18 03:48:09;;;;;;;34.73;18.30;;;4.90;99.90;;;;;;5053350;28;20465;-61
2020/12/18 03:50:36;;;;;;;37.90;19.47;;;4.90;99.90;;;;;;5049224;28;20536;-61
2020/12/18 03:53:01;;;;;;;28.57;17.27;;;4.90;99.90;;;;;;5056649;28;20460;-55
2020/12/18 03:55:27;;;;;;;41.77;20.90;;;4.90;99.90;;;;;;5056513;28;20987;-55
2020/12/18 03:57:53;;;;;;;36.80;19.00;;;4.90;99.90;;;;;;5055918;28;20325;-61
2020/12/18 04:00:19;;;;;;;34.67;18.93;;;4.90;99.90;;;;;;5056238;28;20537;-55
2020/12/18 04:02:45;;;;;;;35.10;19.03;;;4.80;99.90;;;;;;5072317;28;20220;-55
2020/12/18 04:05:11;;;;;;;32.03;16.23;;;4.70;99.90;;;;;;5056793;28;20454;-55
2020/12/18 04:07:37;;;;;;;30.37;16.20;;;4.80;99.90;;;;;;5054449;28;20180;-55
2020/12/18 04:10:04;;;;;;;38.37;17.80;;;4.70;99.90;;;;;;5054970;28;20444;-55
2020/12/18 04:12:30;;;;;;;35.20;18.53;;;4.60;99.90;;;;;;5056227;28;20192;-55
2020/12/18 04:14:56;;;;;;;29.87;16.50;;;4.60;99.90;;;;;;5056606;28;20430;-55
2020/12/18 04:17:22;;;;;;;43.13;20.13;;;4.50;99.90;;;;;;5055000;28;20191;-56
2020/12/18 04:19:48;;;;;;;35.37;19.40;;;4.60;99.90;;;;;;5055468;28;20530;-62
2020/12/18 04:22:13;;;;;;;36.67;19.07;;;4.60;99.90;;;;;;5055999;28;20648;-63
2020/12/18 04:24:40;;;;;;;42.87;19.73;;;4.60;99.90;;;;;;5055516;28;20418;-60
2020/12/18 04:27:05;;;;;;;32.07;17.83;;;4.50;99.90;;;;;;5056295;28;20192;-60
2020/12/18 04:29:32;;;;;;;31.03;18.10;;;4.60;99.90;;;;;;5055112;28;20430;-60
2020/12/18 04:31:57;;;;;;;31.77;17.87;;;4.50;99.90;;;;;;5055990;28;20172;-60
2020/12/18 04:34:23;;;;;;;31.93;18.70;;;4.60;99.90;;;;;;5055886;28;20433;-60
2020/12/18 04:36:50;;;;;;;32.63;18.30;;;4.60;99.90;;;;;;5057805;28;20187;-61
2020/12/18 04:39:16;;;;;;;35.37;17.97;;;4.60;99.90;;;;;;5055984;28;20522;-63
2020/12/18 04:41:42;;;;;;;37.00;19.60;;;4.70;99.90;;;;;;5053386;28;20462;-61
2020/12/18 04:44:09;;;;;;;32.43;18.50;;;4.70;99.90;;;;;;5055647;28;20427;-61
2020/12/18 04:46:36;;;;;;;31.37;17.97;;;4.70;99.90;;;;;;5054278;28;20470;-61
2020/12/18 04:49:04;;;;;;;39.33;20.63;;;4.70;99.90;;;;;;5056069;28;20850;-61
2020/12/18 04:51:30;;;;;;;34.90;18.27;;;4.60;99.90;;;;;;5053267;28;20931;-60
2020/12/18 04:53:56;;;;;;;31.47;18.43;;;4.60;99.90;;;;;;5052188;28;20443;-61
2020/12/18 04:56:24;;;;;;;32.67;17.67;;;4.60;99.90;;;;;;5054279;28;20437;-62
2020/12/18 04:58:52;;;;;;;36.33;18.87;;;4.60;99.90;;;;;;5053373;28;20443;-60
2020/12/18 05:01:25;;;;;;;34.80;17.60;;;4.60;99.90;;;;;;5055395;28;20536;-55
2020/12/18 05:03:51;;;;;;;33.37;17.47;;;4.60;99.90;;;;;;5053658;28;20435;-55
2020/12/18 05:06:18;;;;;;;34.37;18.60;;;4.60;99.90;;;;;;5054455;28;20463;-55
2020/12/18 05:08:44;;;;;;;37.77;19.63;;;4.60;99.90;;;;;;5055069;28;20426;-56
2020/12/18 05:11:19;;;;;;;27.13;16.47;;;4.70;99.90;;;;;;5055639;28;20730;-59
2020/12/18 05:13:46;;;;;;;37.97;19.50;;;4.70;99.90;;;;;;5070949;28;20438;-60
2020/12/18 05:16:12;;;;;;;37.37;17.50;;;4.80;99.90;;;;;;5055550;28;20426;-60
2020/12/18 05:18:38;;;;;;;28.63;16.10;;;4.80;99.90;;;;;;5055391;28;20417;-56
2020/12/18 05:21:05;;;;;;;35.50;18.33;;;4.70;99.90;;;;;;5054345;28;20469;-59
2020/12/18 05:23:54;;;;;;;34.37;18.40;;;4.70;99.90;;;;;;5055365;28;20164;-60
2020/12/18 05:26:25;;;;;;;34.83;17.13;;;4.70;99.90;;;;;;5054229;28;20427;-55
2020/12/18 05:28:51;;;;;;;32.17;18.30;;;4.60;99.90;;;;;;5055834;28;20447;-54
2020/12/18 05:31:19;;;;;;;33.83;17.63;;;4.60;99.90;;;;;;5053361;28;20462;-60
2020/12/18 05:33:48;;;;;;;32.83;18.47;;;4.60;99.90;;;;;;5052468;28;20442;-60
2020/12/18 05:36:14;;;;;;;33.13;16.10;;;4.70;99.90;;;;;;5052203;28;20530;-55
2020/12/18 05:38:41;;;;;;;35.03;20.30;;;4.70;99.90;;;;;;5054708;28;20981;-59
2020/12/18 05:41:08;;;;;;;32.67;18.47;;;4.60;99.90;;;;;;5054703;28;20451;-55
2020/12/18 05:43:39;;;;;;;30.93;16.47;;;4.70;99.90;;;;;;5056638;28;20421;-55
2020/12/18 05:46:24;;;;;;;36.13;18.50;;;4.70;99.90;;;;;;5069863;28;20768;-55
2020/12/18 05:48:56;;;;;;;36.97;19.67;;;4.70;99.90;;;;;;5054868;28;20414;-56
2020/12/18 05:51:31;;;;;;;32.67;17.97;;;4.70;99.90;;;;;;5053729;28;20430;-55
2020/12/18 05:54:30;;;;;;;38.10;18.20;;;4.70;99.90;;;;;;5054510;28;20410;-55
2020/12/18 05:56:55;;;;;;;34.10;16.77;;;4.70;99.90;;;;;;5034335;28;20430;-55
2020/12/18 05:59:21;;;;;;;27.80;16.87;;;4.70;99.90;;;;;;5047658;28;20799;-55
2020/12/18 06:01:54;;;;;;;32.00;17.67;;;4.70;99.90;;;;;;5054386;28;20236;-60
2020/12/18 06:04:22;;;;;;;35.33;18.40;;;4.70;99.90;;;;;;5054531;28;20251;-55
2020/12/18 06:06:57;;;;;;;29.70;17.20;;;4.70;99.90;;;;;;5054937;28;20888;-59
2020/12/18 06:09:26;;;;;;;36.00;19.27;;;4.60;99.90;;;;;;5056729;28;20402;-60
2020/12/18 06:11:52;;;;;;;31.67;17.10;;;4.60;99.90;;;;;;5055205;28;20441;-60
2020/12/18 06:14:19;;;;;;;31.20;16.60;;;4.60;99.90;;;;;;5053618;28;20454;-60
2020/12/18 06:16:54;;;;;;;32.77;17.30;;;4.60;99.90;;;;;;5054389;28;20447;-55
2020/12/18 06:19:21;;;;;;;33.47;18.17;;;4.60;99.90;;;;;;5054273;28;20417;-55
2020/12/18 06:21:52;;;;;;;31.47;18.40;;;4.70;99.90;;;;;;5053999;28;20505;-59
2020/12/18 06:24:18;;;;;;;33.77;17.37;;;4.80;99.90;;;;;;5053457;28;20907;-54
2020/12/18 06:26:45;;;;;;;33.70;17.30;;;4.80;99.90;;;;;;5053994;28;20434;-55
2020/12/18 06:29:16;;;;;;;28.33;15.93;;;4.80;99.90;;;;;;5053575;28;20503;-60
2020/12/18 06:31:42;;;;;;;34.23;17.63;;;4.70;99.90;;;;;;5034110;28;20487;-60
2020/12/18 06:34:10;;;;;;;39.90;16.87;;;4.70;99.90;;;;;;5043670;28;20509;-55
2020/12/18 06:36:48;;;;;;;28.37;17.30;;;4.70;99.90;;;;;;5069959;28;20430;-61
2020/12/18 06:39:50;;;;;;;32.13;16.97;;;4.70;99.90;;;;;;5054111;28;20480;-61
2020/12/18 06:42:24;;;;;;;36.83;15.93;;;4.90;99.90;;;;;;5018019;28;20478;-54
2020/12/18 06:44:52;;;;;;;31.50;17.67;;;4.80;99.90;;;;;;5050686;28;20421;-60
2020/12/18 06:47:30;;;;;;;29.10;16.80;;;4.80;99.90;;;;;;5052102;28;20462;-60
2020/12/18 06:49:56;;;;;;;33.10;18.10;;;4.80;99.90;;;;;;5053174;28;20488;-55
2020/12/18 06:52:40;;;;;;;35.03;18.57;;;4.80;99.90;;;;;;5052902;28;20470;-61
2020/12/18 06:55:11;;;;;;;40.10;18.47;;;4.80;99.90;;;;;;5053503;28;20183;-60
2020/12/18 06:57:38;;;;;;;33.80;18.27;;;4.90;99.90;;;;;;5053544;28;20406;-60
2020/12/18 07:00:22;;;;;;;33.70;18.27;;;4.90;99.90;;;;;;5053345;28;20458;-55
2020/12/18 07:02:48;;;;;;;33.93;18.10;;;4.90;99.90;;;;;;5053618;28;20520;-55
2020/12/18 07:05:41;;;;;;;29.93;17.90;;;4.90;99.90;;;;;;5053634;28;20434;-55
2020/12/18 07:08:09;;;;;;;35.57;18.43;;;4.90;99.90;;;;;;5053865;28;20430;-59
2020/12/18 07:10:39;;;;;;;28.63;16.13;;;4.90;99.90;;;;;;5053780;28;20749;-60
2020/12/18 07:13:07;;;;;;;35.00;16.83;;;4.90;99.90;;;;;;5053816;28;20434;-54
2020/12/18 07:15:44;;;;;;;37.27;18.70;;;5.00;99.90;;;;;;5052709;28;20439;-55
2020/12/18 07:18:25;;;;;;;31.87;16.80;;;5.00;99.90;;;;;;5040836;28;20767;-60
2020/12/18 07:21:01;;;;;;;33.43;17.43;;;5.00;99.90;;;;;;5052078;28;20448;-60
2020/12/18 07:23:29;;;;;;;35.40;20.10;;;4.90;99.90;;;;;;5068933;28;20484;-60
2020/12/18 07:25:56;;;;;;;32.87;17.60;;;4.90;99.90;;;;;;5054667;28;20433;-60
2020/12/18 07:28:25;;;;;;;28.90;17.33;;;4.90;99.90;;;;;;5057402;28;20425;-60
2020/12/18 07:30:51;;;;;;;35.40;18.00;;;4.80;99.90;;;;;;5057409;28;20865;-55
2020/12/18 07:33:19;;;;;;;30.80;16.67;;;4.80;99.90;;;;;;5057443;28;20418;-60
2020/12/18 07:35:47;;;;;;;31.57;18.37;;;4.90;99.90;;;;;;5056527;28;20492;-55
2020/12/18 07:38:19;;;;;;;26.03;16.37;;;4.90;99.90;;;;;;5056102;28;20521;-61
2020/12/18 07:40:46;;;;;;;33.23;16.70;;;4.80;99.90;;;;;;5057003;28;20772;-60
2020/12/18 07:43:13;;;;;;;32.40;17.47;;;4.90;99.90;;;;;;5056547;28;21171;-55
2020/12/18 07:45:41;;;;;;;30.63;16.53;;;5.00;99.90;;;;;;5056847;28;20488;-56
2020/12/18 07:48:09;;;;;;;32.97;17.70;;;5.10;99.90;;;;;;5056807;28;20473;-61
2020/12/18 07:50:35;;;;;;;30.37;16.30;;;5.10;99.90;;;;;;5056958;28;20759;-60
2020/12/18 07:53:10;;;;;;;33.60;17.87;;;5.10;99.90;;;;;;5056735;28;20999;-55
2020/12/18 07:55:37;;;;;;;31.77;17.37;;;5.10;99.90;;;;;;5036120;28;20263;-60
2020/12/18 07:58:04;;;;;;;29.17;16.90;;;5.10;99.90;;;;;;5050366;28;20439;-55
2020/12/18 08:00:29;;;;;;;31.10;16.20;;;5.20;99.90;;;;;;5054510;28;20481;-61
2020/12/18 08:02:55;;;;;;;24.63;15.67;;;5.10;99.90;;;;;;5056349;28;20417;-55
2020/12/18 08:05:22;;;;;;;30.47;17.97;;;5.10;99.90;;;;;;5056696;28;20272;-55
2020/12/18 08:07:58;;;;;;;30.80;16.97;;;5.20;99.90;;;;;;5056518;28;20908;-60
2020/12/18 08:10:23;;;;;;;28.10;16.77;;;5.30;99.90;;;;;;5056126;28;20434;-60
2020/12/18 08:12:50;;;;;;;31.40;14.67;;;5.30;99.90;;;;;;5055604;28;20492;-61
2020/12/18 08:15:16;;;;;;;25.33;15.10;;;5.40;99.90;;;;;;5055176;28;20521;-60
2020/12/18 08:17:42;;;;;;;32.43;15.33;;;5.30;99.90;;;;;;5056432;28;20445;-61
2020/12/18 08:20:11;;;;;;;25.27;13.97;;;5.30;99.90;;;;;;5055824;28;20216;-62
2020/12/18 08:22:43;;;;;;;28.57;14.83;;;5.30;99.90;;;;;;5055707;28;20446;-63
2020/12/18 08:25:10;;;;;;;26.30;15.20;;;5.40;99.90;;;;;;5056111;28;20487;-61
2020/12/18 08:27:46;;;;;;;28.00;14.37;;;5.40;99.90;;;;;;5055969;28;20437;-54
2020/12/18 08:30:15;;;;;;;23.97;14.70;;;5.60;99.90;;;;;;5055753;28;20524;-62
2020/12/18 08:32:45;;;;;;;24.63;13.90;;;5.60;99.90;;;;;;5056312;28;20426;-55
2020/12/18 08:35:19;;;;;;;21.93;13.67;;;5.60;99.90;;;;;;5056263;28;20438;-54
2020/12/18 08:37:44;;;;;;;24.13;12.50;;;5.70;99.90;;;;;;5055668;28;20421;-55
2020/12/18 08:40:25;;;;;;;24.17;13.77;;;5.80;99.90;;;;;;5055775;28;20946;-54
2020/12/18 08:42:59;;;;;;;21.40;13.80;;;5.90;99.90;;;;;;5055259;28;20168;-54
2020/12/18 08:45:25;;;;;;;22.60;11.73;;;6.00;99.90;;;;;;5069634;28;20457;-55
2020/12/18 08:47:51;;;;;;;22.33;12.50;;;6.00;99.90;;;;;;5052130;28;20554;-62
2020/12/18 08:50:18;;;;;;;18.40;12.10;;;6.10;99.90;;;;;;5052139;28;20434;-63
2020/12/18 08:52:46;;;;;;;21.50;12.20;;;6.20;99.90;;;;;;5045812;28;20456;-61
2020/12/18 08:55:12;;;;;;;17.30;11.00;;;6.20;99.90;;;;;;5054129;28;20450;-55
2020/12/18 08:57:38;;;;;;;19.37;11.60;;;6.20;99.90;;;;;;5053983;28;20540;-55
2020/12/18 09:00:17;;;;;;;17.80;11.30;;;6.30;99.90;;;;;;5055734;28;20469;-55
2020/12/18 09:02:56;;;;;;;16.30;10.70;;;6.30;99.90;;;;;;5071315;28;20429;-62
2020/12/18 09:05:36;;;;;;;15.70;11.50;;;6.40;99.90;;;;;;5070766;28;20982;-55
2020/12/18 09:08:04;;;;;;;19.97;10.80;;;6.40;99.90;;;;;;5055649;28;20759;-55
2020/12/18 09:10:32;;;;;;;14.47;9.87;;;6.50;99.90;;;;;;5069026;28;20518;-55
2020/12/18 09:13:20;;;;;;;16.20;10.40;;;6.60;99.90;;;;;;5053045;28;20943;-55
2020/12/18 09:16:01;;;;;;;14.60;9.83;;;6.70;99.90;;;;;;5042850;28;20465;-55
2020/12/18 09:18:31;;;;;;;15.83;11.13;;;6.80;99.90;;;;;;5055501;28;20429;-63
2020/12/18 09:21:15;;;;;;;17.20;11.43;;;6.90;99.90;;;;;;5054794;28;20464;-62
2020/12/18 09:23:42;;;;;;;14.87;9.40;;;7.00;99.90;;;;;;5035857;28;20423;-60
2020/12/18 09:26:08;;;;;;;14.97;10.07;;;6.90;99.90;;;;;;5049905;28;20430;-63
2020/12/18 09:28:37;;;;;;;16.97;11.10;;;6.90;99.90;;;;;;5052536;28;20474;-63
2020/12/18 09:31:05;;;;;;;17.43;10.63;;;7.00;99.90;;;;;;5035250;28;20469;-55
2020/12/18 09:33:33;;;;;;;15.43;10.13;;;7.10;99.90;;;;;;5035307;28;20402;-55
2020/12/18 09:36:09;;;;;;;20.27;10.67;;;7.10;99.90;;;;;;5036784;28;20446;-63
2020/12/18 09:38:54;;;;;;;14.33;9.63;;;7.30;99.90;;;;;;5036197;28;20748;-63
2020/12/18 09:41:22;;;;;;;15.33;9.37;;;7.30;99.90;;;;;;5035223;28;20447;-63
2020/12/18 09:43:49;;;;;;;15.73;9.50;;;7.40;99.90;;;;;;5035033;28;20427;-62
2020/12/18 09:46:18;;;;;;;13.63;8.67;;;7.50;99.90;;;;;;5043161;28;20463;-63
2020/12/18 09:48:46;;;;;;;15.40;10.30;;;7.50;99.90;;;;;;5045970;28;20458;-63
2020/12/18 09:51:13;;;;;;;16.40;9.57;;;7.60;99.90;;;;;;5035004;28;20765;-63
2020/12/18 09:53:39;;;;;;;15.90;9.53;;;7.70;99.90;;;;;;5034889;28;20901;-62
2020/12/18 09:56:08;;;;;;;13.70;8.87;;;7.80;99.90;;;;;;5041132;28;20528;-63
2020/12/18 09:58:34;;;;;;;12.60;7.83;;;7.90;99.90;;;;;;5054532;28;20501;-63
2020/12/18 10:00:59;;;;;;;15.90;9.47;;;7.90;99.90;;;;;;5054021;28;20548;-63
2020/12/18 10:03:26;;;;;;;15.00;10.57;;;7.90;99.90;;;;;;5066903;28;20454;-65
2020/12/18 10:05:51;;;;;;;14.00;8.67;;;8.00;99.90;;;;;;5042192;28;20193;-63
2020/12/18 10:08:18;;;;;;;15.60;8.60;;;8.10;99.90;;;;;;5034691;28;20416;-64
2020/12/18 10:10:45;;;;;;;11.83;8.60;;;8.00;99.90;;;;;;5044956;28;20196;-63
2020/12/18 10:13:11;;;;;;;14.97;10.23;;;8.10;99.90;;;;;;5034658;28;20430;-63
2020/12/18 10:15:38;;;;;;;17.23;11.47;;;8.10;99.90;;;;;;5050502;28;20485;-62
2020/12/18 10:18:04;;;;;;;14.50;8.80;;;8.20;99.90;;;;;;5054560;28;20823;-63
2020/12/18 10:20:30;;;;;;;12.20;7.80;;;8.30;99.90;;;;;;5043145;28;20491;-63
2020/12/18 10:22:56;;;;;;;14.90;9.17;;;8.30;99.90;;;;;;5049219;28;20510;-63
2020/12/18 10:25:22;;;;;;;15.27;8.10;;;8.40;99.90;;;;;;5053905;28;20674;-55
2020/12/18 10:27:48;;;;;;;14.00;9.23;;;8.50;99.90;;;;;;5070126;28;20172;-62
2020/12/18 10:30:14;;;;;;;11.90;8.60;;;8.50;99.90;;;;;;5069977;28;21126;-62
2020/12/18 10:32:42;;;;;;;12.47;8.43;;;8.50;99.90;;;;;;5044999;28;20188;-63
2020/12/18 10:35:09;;;;;;;14.47;9.00;;;8.50;99.90;;;;;;5034269;28;20419;-63
2020/12/18 10:37:35;;;;;;;13.50;8.30;;;8.60;99.90;;;;;;5045808;28;20516;-54
2020/12/18 10:40:02;;;;;;;12.30;8.73;;;8.70;99.90;;;;;;5053522;28;20539;-56
2020/12/18 10:42:28;;;;;;;13.53;8.50;;;8.80;99.90;;;;;;5054053;28;20908;-63
2020/12/18 10:44:54;;;;;;;12.70;9.43;;;8.80;99.90;;;;;;5054249;28;20426;-63
2020/12/18 10:47:20;;;;;;;10.20;6.97;;;8.80;99.90;;;;;;5053540;28;20465;-63
2020/12/18 10:49:46;;;;;;;13.63;8.70;;;8.90;99.90;;;;;;5070689;28;20556;-56
2020/12/18 10:52:12;;;;;;;15.73;9.10;;;8.80;99.90;;;;;;5054345;28;20422;-55
2020/12/18 10:54:38;;;;;;;15.83;9.10;;;8.90;99.90;;;;;;5057691;28;20227;-55
2020/12/18 10:57:04;;;;;;;12.73;8.47;;;9.00;99.90;;;;;;5034551;28;20411;-55
2020/12/18 10:59:31;;;;;;;14.97;7.50;;;9.00;99.90;;;;;;5035308;28;20192;-56
2020/12/18 11:01:58;;;;;;;12.93;8.50;;;9.10;99.90;;;;;;5037201;28;20471;-56
2020/12/18 11:04:26;;;;;;;14.10;7.97;;;9.20;99.20;;;;;;5038121;28;20421;-55
2020/12/18 11:06:52;;;;;;;10.83;6.97;;;9.20;92.60;;;;;;5038262;28;20753;-62
2020/12/18 11:09:19;;;;;;;12.77;8.27;;;9.30;82.90;;;;;;5045045;28;20443;-57
2020/12/18 11:11:49;;;;;;;14.77;8.00;;;9.50;58.50;;;;;;5055847;28;20435;-55
2020/12/18 11:14:15;;;;;;;14.20;8.17;;;9.60;43.80;;;;;;5056268;28;20457;-55
2020/12/18 11:16:40;;;;;;;15.03;8.07;;;9.60;37.20;;;;;;5057422;28;20431;-55
2020/12/18 11:19:07;;;;;;;13.47;9.07;;;9.70;30.10;;;;;;5055490;28;20496;-56
2020/12/18 11:21:33;;;;;;;11.70;7.90;;;9.70;25.30;;;;;;5055905;28;20533;-56
2020/12/18 11:23:59;;;;;;;11.50;7.63;;;9.80;14.30;;;;;;5057155;28;20900;-56
2020/12/18 11:26:25;;;;;;;9.60;7.27;;;9.70;12.50;;;;;;5057309;28;20192;-56
2020/12/18 11:28:52;;;;;;;11.70;8.10;;;9.70;12.00;;;;;;5043460;28;20430;-56
2020/12/18 11:31:18;;;;;;;9.93;7.27;;;9.70;14.80;;;;;;5043860;28;20434;-56
2020/12/18 11:33:44;;;;;;;10.30;8.03;;;9.70;12.70;;;;;;5047739;28;20447;-55
2020/12/18 11:36:10;;;;;;;10.30;7.07;;;9.70;9.90;;;;;;5044558;28;20764;-55
2020/12/18 11:38:35;;;;;;;9.20;6.13;;;9.70;9.60;;;;;;5057642;28;20211;-56
2020/12/18 11:41:02;;;;;;;10.90;6.90;;;9.60;12.00;;;;;;5056928;28;20552;-56
2020/12/18 11:43:28;;;;;;;13.37;7.70;;;9.70;8.80;;;;;;5070660;28;20179;-55
2020/12/18 11:45:53;;;;;;;12.17;7.20;;;9.70;5.80;;;;;;5041143;28;20443;-59
2020/12/18 11:48:20;;;;;;;9.80;6.93;;;9.80;1.00;;;;;;5056185;28;20449;-55
2020/12/18 11:50:46;;;;;;;9.60;6.73;;;9.80;1.00;;;;;;5057123;28;20176;-54
2020/12/18 11:53:12;;;;;;;10.10;6.90;;;9.90;1.00;;;;;;5055420;28;20934;-55
2020/12/18 11:55:38;;;;;;;9.07;6.50;;;9.90;1.00;;;;;;5055333;28;20454;-55
2020/12/18 11:58:05;;;;;;;10.73;7.63;;;10.00;1.00;;;;;;5048573;28;20514;-55
2020/12/18 12:00:31;;;;;;;8.70;6.70;;;10.00;1.00;;;;;;5037362;28;20532;-54
2020/12/18 12:02:57;;;;;;;12.07;7.40;;;10.00;1.00;;;;;;5051637;28;20426;-56
2020/12/18 12:05:24;;;;;;;11.20;8.40;;;9.90;1.00;;;;;;5052211;28;20431;-55
2020/12/18 12:07:51;;;;;;;13.37;8.30;;;9.90;1.00;;;;;;5057275;28;20431;-56
2020/12/18 12:10:18;;;;;;;11.17;6.57;;;10.00;1.00;;;;;;5055396;28;20434;-56
2020/12/18 12:12:46;;;;;;;12.20;7.30;;;9.90;1.00;;;;;;5050211;28;21060;-55
2020/12/18 12:15:11;;;;;;;11.40;7.70;;;10.10;1.00;;;;;;5055261;28;20493;-55
2020/12/18 12:17:38;;;;;;;12.67;7.43;;;10.20;1.00;;;;;;5057059;28;20487;-57
2020/12/18 12:20:04;;;;;;;13.50;8.40;;;10.20;1.00;;;;;;5052965;28;20211;-55
2020/12/18 12:22:30;;;;;;;12.93;7.27;;;10.00;1.00;;;;;;5056769;28;20438;-59
2020/12/18 12:24:56;;;;;;;13.43;9.07;;;10.00;1.00;;;;;;5048887;28;20760;-56
2020/12/18 12:27:24;;;;;;;9.40;7.00;;;9.90;1.00;;;;;;5047419;28;20426;-57
2020/12/18 12:29:51;;;;;;;12.33;9.10;;;9.90;1.00;;;;;;5056310;28;20172;-57
2020/12/18 12:32:17;;;;;;;10.90;8.03;;;9.90;1.00;;;;;;5056344;28;20390;-56
2020/12/18 12:34:43;;;;;;;12.27;8.20;;;9.90;1.00;;;;;;5056633;28;20795;-55
2020/12/18 12:37:11;;;;;;;13.77;8.33;;;9.90;1.00;;;;;;5040246;28;20427;-64
2020/12/18 12:39:38;;;;;;;13.33;8.50;;;9.90;1.00;;;;;;5054854;28;20196;-56
2020/12/18 12:42:04;;;;;;;13.90;8.30;;;9.90;1.00;;;;;;5071836;28;20922;-55
2020/12/18 12:44:30;;;;;;;13.43;9.47;;;9.80;1.00;;;;;;5055210;28;20923;-64